Time;durP1;ratioP1;P1;durP2;ratioP2;P2;SDS_P1;SDS_P2;PMS_P1;PMS_P2;Temp;Humidity;BMP_temperature;BMP_pressure;BME280_temperature;BME280_humidity;BME280_pressure;Samples;Min_cycle;Max_cycle;Signal;HPM_P1;HPM_P2
2021/08/29 00:01:23;;;;;;;13.02;3.25;;;;;;;15.94;74.55;102225.19;5061277;28;20068;-41
2021/08/29 00:03:49;;;;;;;12.13;3.90;;;;;;;15.99;74.39;102228.22;5064489;28;20107;-41
2021/08/29 00:06:14;;;;;;;9.85;3.13;;;;;;;16.00;74.21;102227.16;5071660;28;20056;-40
2021/08/29 00:08:40;;;;;;;12.63;3.35;;;;;;;16.06;73.65;102224.75;5071922;28;20040;-40
2021/08/29 00:11:05;;;;;;;16.77;2.90;;;;;;;16.08;73.12;102223.53;5072110;28;20043;-40
2021/08/29 00:13:30;;;;;;;11.18;3.28;;;;;;;16.12;73.09;102224.03;5075489;28;20028;-41
2021/08/29 00:15:55;;;;;;;11.38;3.42;;;;;;;16.10;72.90;102226.09;5075108;28;20111;-41
2021/08/29 00:18:21;;;;;;;11.27;3.30;;;;;;;16.13;72.46;102221.13;5075551;28;20116;-39
2021/08/29 00:20:46;;;;;;;8.02;2.67;;;;;;;16.17;72.07;102218.88;5075555;28;20036;-41
2021/08/29 00:23:12;;;;;;;15.48;3.38;;;;;;;16.14;72.24;102224.66;5075228;28;20039;-39
2021/08/29 00:25:38;;;;;;;8.38;3.05;;;;;;;16.13;71.90;102220.28;5075292;28;20036;-41
2021/08/29 00:28:03;;;;;;;14.35;3.42;;;;;;;16.13;71.58;102223.00;5076087;28;20035;-40
2021/08/29 00:30:29;;;;;;;6.80;2.95;;;;;;;16.14;71.36;102220.09;5075438;28;20510;-41
2021/08/29 00:32:54;;;;;;;7.65;2.92;;;;;;;16.16;71.13;102223.44;5075236;28;20373;-40
2021/08/29 00:35:20;;;;;;;10.50;3.28;;;;;;;16.13;71.08;102217.56;5075263;28;20369;-41
2021/08/29 00:37:45;;;;;;;8.45;2.95;;;;;;;16.15;70.76;102220.94;5075602;28;20060;-40
2021/08/29 00:40:11;;;;;;;8.75;3.05;;;;;;;16.15;70.26;102215.50;5075469;28;20031;-41
2021/08/29 00:42:36;;;;;;;9.95;3.03;;;;;;;16.09;70.96;102211.66;5073636;28;20048;-41
2021/08/29 00:45:01;;;;;;;10.10;3.13;;;;;;;16.08;70.73;102217.25;5066078;28;20033;-40
2021/08/29 00:47:27;;;;;;;12.82;3.30;;;;;;;16.08;70.39;102209.97;5055262;28;20037;-40
2021/08/29 00:49:52;;;;;;;11.90;3.33;;;;;;;16.10;69.76;102216.06;5054838;28;20027;-41
2021/08/29 00:52:17;;;;;;;9.95;2.95;;;;;;;16.13;70.00;102214.84;5070752;28;20155;-40
2021/08/29 00:54:43;;;;;;;12.23;3.33;;;;;;;16.08;70.09;102214.56;5074848;28;20045;-40
2021/08/29 00:57:09;;;;;;;10.43;3.08;;;;;;;16.07;70.34;102210.16;5075085;28;20036;-40
2021/08/29 00:59:39;;;;;;;10.05;3.40;;;;;;;16.00;70.39;102208.16;5074738;28;20093;-40
2021/08/29 01:02:10;;;;;;;9.88;3.40;;;;;;;16.04;70.54;102214.09;5061511;28;20041;-41
2021/08/29 01:04:43;;;;;;;15.75;3.80;;;;;;;15.97;70.76;102211.25;5066644;28;20094;-39
2021/08/29 01:07:59;;;;;;;12.23;3.20;;;;;;;15.94;70.75;102211.63;5057222;28;20032;-40
2021/08/29 01:10:48;;;;;;;11.38;3.35;;;;;;;15.93;70.99;102209.94;4992945;28;20116;-40
2021/08/29 01:13:26;;;;;;;17.58;3.42;;;;;;;15.94;71.21;102211.63;5037156;28;20468;-41
2021/08/29 01:15:54;;;;;;;10.77;3.58;;;;;;;15.91;71.63;102198.41;5073664;28;20074;-40
2021/08/29 01:18:21;;;;;;;8.60;3.63;;;;;;;15.89;72.03;102205.91;5056801;28;20028;-40
2021/08/29 01:21:00;;;;;;;11.18;3.17;;;;;;;15.92;71.85;102205.53;5052058;28;20111;-40
2021/08/29 01:23:26;;;;;;;14.73;3.85;;;;;;;15.91;71.78;102206.56;5037893;28;20044;-41
2021/08/29 01:26:32;;;;;;;11.25;3.78;;;;;;;15.92;72.02;102193.84;5074493;28;20033;-41
2021/08/29 01:29:03;;;;;;;7.70;3.30;;;;;;;15.88;72.29;102193.38;5034367;28;20052;-39
2021/08/29 01:31:31;;;;;;;8.35;3.28;;;;;;;15.82;72.46;102188.66;5036156;28;20037;-40
2021/08/29 01:33:59;;;;;;;8.50;3.03;;;;;;;15.83;72.74;102195.78;5042013;28;20047;-40
2021/08/29 01:36:25;;;;;;;10.48;3.67;;;;;;;15.85;72.85;102188.31;5074412;28;20368;-40
2021/08/29 01:38:51;;;;;;;12.80;3.30;;;;;;;15.87;73.11;102191.66;5074316;28;20049;-40
2021/08/29 01:41:17;;;;;;;10.27;3.00;;;;;;;15.86;72.83;102192.69;5056371;28;20360;-40
2021/08/29 01:43:43;;;;;;;12.10;3.58;;;;;;;15.90;72.88;102196.72;5073838;28;20472;-41
2021/08/29 01:46:08;;;;;;;11.90;4.00;;;;;;;15.87;72.88;102194.38;5056024;28;20036;-41
2021/08/29 01:48:35;;;;;;;14.32;3.70;;;;;;;15.93;72.70;102196.38;5056424;28;20051;-40
2021/08/29 01:51:01;;;;;;;8.95;3.20;;;;;;;15.99;72.39;102195.63;5055249;28;20094;-40
2021/08/29 01:53:27;;;;;;;9.30;3.72;;;;;;;15.95;72.34;102196.16;5056099;28;20027;-41
2021/08/29 01:55:52;;;;;;;13.40;3.13;;;;;;;15.98;71.95;102193.94;5055966;28;20352;-40
2021/08/29 01:58:18;;;;;;;7.53;2.70;;;;;;;16.00;72.21;102191.03;5074021;28;20052;-41
2021/08/29 02:00:52;;;;;;;11.93;3.47;;;;;;;16.09;71.97;102205.38;5072593;28;20039;-40
2021/08/29 02:03:19;;;;;;;7.28;3.20;;;;;;;16.18;71.67;102202.38;5073919;28;20057;-40
2021/08/29 02:05:45;;;;;;;12.02;2.95;;;;;;;16.21;71.43;102203.88;5073916;28;20028;-41
2021/08/29 02:08:13;;;;;;;7.13;2.50;;;;;;;16.21;71.48;102204.72;5073048;28;20036;-40
2021/08/29 02:10:40;;;;;;;9.35;3.20;;;;;;;16.28;71.26;102199.41;5073175;28;20464;-40
2021/08/29 02:13:09;;;;;;;5.03;2.40;;;;;;;16.27;71.38;102208.56;5055623;28;20028;-41
2021/08/29 02:15:35;;;;;;;10.98;2.78;;;;;;;16.20;71.64;102207.66;5073254;28;20403;-40
2021/08/29 02:18:09;;;;;;;7.10;2.63;;;;;;;16.11;72.16;102204.16;5055311;28;20056;-40
2021/08/29 02:20:36;;;;;;;6.65;2.67;;;;;;;16.07;72.45;102207.44;5055240;28;20070;-41
2021/08/29 02:23:02;;;;;;;6.70;2.95;;;;;;;16.02;73.06;102208.81;5055535;28;20492;-39
2021/08/29 02:25:27;;;;;;;6.43;3.20;;;;;;;16.04;72.79;102205.09;5073544;28;20039;-39
2021/08/29 02:27:53;;;;;;;9.88;2.95;;;;;;;16.01;73.49;102209.88;5073143;28;20024;-39
2021/08/29 02:30:19;;;;;;;5.03;2.75;;;;;;;16.06;73.40;102211.16;5054963;28;20056;-40
2021/08/29 02:32:45;;;;;;;7.82;3.00;;;;;;;16.04;73.84;102203.22;5073122;28;20422;-40
2021/08/29 02:35:11;;;;;;;7.43;3.05;;;;;;;16.13;73.63;102201.25;5054342;28;20032;-40
2021/08/29 02:37:37;;;;;;;5.00;2.70;;;;;;;16.10;73.54;102207.06;5073014;28;20033;-40
2021/08/29 02:40:07;;;;;;;7.97;3.35;;;;;;;16.06;74.00;102206.59;5055185;28;20040;-41
2021/08/29 02:42:32;;;;;;;7.93;3.00;;;;;;;16.10;73.64;102202.47;5053086;28;20128;-40
2021/08/29 02:45:00;;;;;;;9.10;3.28;;;;;;;16.14;73.71;102202.94;5053556;28;20040;-41
2021/08/29 02:47:25;;;;;;;7.53;3.20;;;;;;;16.11;73.89;102206.03;5041343;28;20024;-40
2021/08/29 02:49:53;;;;;;;7.35;2.95;;;;;;;16.13;73.42;102201.25;5072876;28;20031;-40
2021/08/29 02:52:19;;;;;;;9.82;3.08;;;;;;;16.16;73.16;102193.56;5054896;28;20032;-40
2021/08/29 02:54:47;;;;;;;11.18;3.38;;;;;;;16.16;72.66;102184.59;5072821;28;20051;-41
2021/08/29 02:57:12;;;;;;;;;;;;;;;16.24;71.88;102187.22;5072825;28;20032;-39
2021/08/29 02:59:38;;;;;;;8.98;2.88;;;;;;;16.12;72.07;102188.72;5054999;28;20037;-40
2021/08/29 03:02:08;;;;;;;7.97;3.28;;;;;;;16.12;72.22;102195.00;5072031;28;20037;-40
2021/08/29 03:04:34;;;;;;;8.05;2.70;;;;;;;16.16;71.73;102187.31;5072550;28;20404;-40
2021/08/29 03:06:59;;;;;;;10.13;2.85;;;;;;;16.25;73.46;102197.06;5072591;28;20040;-40
2021/08/29 03:09:25;;;;;;;8.07;2.90;;;;;;;16.17;74.79;102183.56;5072733;28;20032;-40
2021/08/29 03:11:50;;;;;;;8.30;2.70;;;;;;;16.06;75.74;102190.31;5072620;28;20116;-40
2021/08/29 03:14:15;;;;;;;8.18;2.58;;;;;;;16.00;76.50;102182.88;5072755;28;20418;-40
2021/08/29 03:16:41;;;;;;;9.25;2.45;;;;;;;15.95;77.07;102183.44;5072273;28;20036;-39
2021/08/29 03:19:06;;;;;;;10.82;2.33;;;;;;;15.86;77.20;102189.97;5072561;28;20054;-40
2021/08/29 03:21:32;;;;;;;14.45;2.50;;;;;;;15.80;78.00;102180.72;5054469;28;20044;-40
2021/08/29 03:23:57;;;;;;;11.43;2.67;;;;;;;15.83;78.06;102178.66;5072786;28;20039;-40
2021/08/29 03:26:23;;;;;;;10.20;2.50;;;;;;;15.88;78.94;102177.06;5072073;28;20420;-41
2021/08/29 03:28:48;;;;;;;9.13;2.15;;;;;;;15.82;79.34;102183.22;5071959;28;20041;-41
2021/08/29 03:31:14;;;;;;;10.02;2.20;;;;;;;15.83;79.21;102175.94;5071736;28;20028;-41
2021/08/29 03:33:40;;;;;;;8.85;2.53;;;;;;;15.71;79.59;102170.09;5054544;28;20029;-41
2021/08/29 03:36:06;;;;;;;10.15;2.45;;;;;;;15.72;79.72;102161.78;5054420;28;20032;-40
2021/08/29 03:38:33;;;;;;;13.52;2.70;;;;;;;15.73;79.30;102178.91;5054076;28;20520;-40
2021/08/29 03:40:59;;;;;;;12.10;2.75;;;;;;;15.73;78.98;102173.47;5053807;28;20129;-41
2021/08/29 03:43:25;;;;;;;12.83;2.33;;;;;;;15.75;78.48;102169.56;5072467;28;20020;-41
2021/08/29 03:45:51;;;;;;;14.27;2.88;;;;;;;15.78;78.08;102171.06;5074077;28;20025;-41
2021/08/29 03:48:16;;;;;;;12.23;2.80;;;;;;;15.79;77.93;102172.75;5063428;28;20039;-42
2021/08/29 03:50:44;;;;;;;13.02;2.78;;;;;;;15.82;77.12;102166.09;5074080;28;20028;-41
2021/08/29 03:53:10;;;;;;;11.82;2.80;;;;;;;15.75;76.97;102160.56;5076344;28;20033;-41
2021/08/29 03:55:35;;;;;;;9.13;2.40;;;;;;;15.82;77.03;102166.09;5041560;28;20020;-41
2021/08/29 03:58:01;;;;;;;7.72;2.53;;;;;;;15.83;76.91;102168.63;5075965;28;20055;-41
2021/08/29 04:00:27;;;;;;;15.02;3.40;;;;;;;15.82;76.59;102160.66;5072893;28;20368;-39
2021/08/29 04:02:52;;;;;;;16.23;4.22;;;;;;;15.79;77.01;102157.28;5076003;28;20028;-41
2021/08/29 04:05:18;;;;;;;10.55;2.58;;;;;;;15.82;77.02;102161.50;5075889;28;20457;-39
2021/08/29 04:07:43;;;;;;;17.58;2.88;;;;;;;15.84;77.01;102154.03;5075804;28;20047;-40
2021/08/29 04:10:10;;;;;;;13.07;2.90;;;;;;;15.79;77.07;102151.84;5076017;28;20047;-40
2021/08/29 04:12:37;;;;;;;10.05;2.42;;;;;;;15.78;77.51;102154.78;5075732;28;20480;-41
2021/08/29 04:15:03;;;;;;;15.48;2.85;;;;;;;15.81;77.11;102154.41;5076031;28;20033;-41
2021/08/29 04:17:30;;;;;;;11.45;2.85;;;;;;;15.80;77.38;102152.72;5075543;28;20106;-41
2021/08/29 04:19:56;;;;;;;15.25;2.72;;;;;;;15.85;76.08;102146.72;5056946;28;20077;-41
2021/08/29 04:22:21;;;;;;;8.73;2.58;;;;;;;15.89;75.60;102148.88;5042549;28;20372;-41
2021/08/29 04:24:47;;;;;;;9.65;2.60;;;;;;;15.86;75.56;102154.69;5057926;28;20082;-39
2021/08/29 04:27:12;;;;;;;13.65;3.17;;;;;;;15.88;75.33;102154.53;5070787;28;20037;-40
2021/08/29 04:29:38;;;;;;;12.85;2.97;;;;;;;15.89;75.36;102153.47;5060108;28;20077;-40
2021/08/29 04:32:04;;;;;;;14.70;2.60;;;;;;;15.86;74.81;102145.72;5055802;28;20039;-39
2021/08/29 04:34:30;;;;;;;11.32;3.08;;;;;;;15.86;74.56;102154.69;5053261;28;20036;-40
2021/08/29 04:36:55;;;;;;;15.48;2.67;;;;;;;15.88;73.98;102149.94;5064096;28;20085;-39
2021/08/29 04:39:20;;;;;;;11.63;2.55;;;;;;;15.84;74.21;102145.03;5052374;28;20044;-41
2021/08/29 04:41:46;;;;;;;16.20;2.60;;;;;;;15.83;73.58;102144.22;5061754;28;20021;-40
2021/08/29 04:44:11;;;;;;;10.43;2.40;;;;;;;15.84;73.90;102142.31;5057940;28;20075;-40
2021/08/29 04:46:37;;;;;;;6.68;2.20;;;;;;;15.85;73.33;102147.59;5064683;28;20016;-40
2021/08/29 04:49:03;;;;;;;9.10;2.40;;;;;;;15.87;73.29;102153.66;5066639;28;20057;-41
2021/08/29 04:51:29;;;;;;;6.47;2.13;;;;;;;15.84;73.55;102153.19;5043755;28;20517;-40
2021/08/29 04:53:55;;;;;;;9.38;2.70;;;;;;;15.85;73.40;102161.16;5059171;28;20506;-40
2021/08/29 04:56:20;;;;;;;10.27;2.60;;;;;;;15.92;73.35;102156.66;5070317;28;20048;-40
2021/08/29 04:58:46;;;;;;;10.40;2.78;;;;;;;15.94;73.57;102157.31;5064061;28;20341;-40
2021/08/29 05:01:12;;;;;;;15.05;3.22;;;;;;;15.89;74.43;102161.63;5064375;28;20119;-40
2021/08/29 05:03:37;;;;;;;13.82;2.97;;;;;;;15.90;74.18;102153.28;5069253;28;20468;-40
2021/08/29 05:06:02;;;;;;;17.40;2.90;;;;;;;15.91;74.33;102157.69;5070819;28;20025;-40
2021/08/29 05:08:28;;;;;;;16.83;3.10;;;;;;;15.92;74.34;102150.38;5071604;28;20068;-39
2021/08/29 05:10:53;;;;;;;11.20;2.72;;;;;;;16.00;73.88;102159.28;5069908;28;20582;-41
2021/08/29 05:13:19;;;;;;;13.18;2.97;;;;;;;16.02;73.67;102153.69;5071983;28;20032;-39
2021/08/29 05:15:44;;;;;;;9.55;2.50;;;;;;;16.00;73.93;102159.28;5068633;28;20074;-40
2021/08/29 05:18:09;;;;;;;13.02;3.08;;;;;;;16.03;73.51;102149.91;5070790;28;20072;-39
2021/08/29 05:20:35;;;;;;;14.20;3.17;;;;;;;16.06;73.28;102159.56;5069131;28;20032;-40
2021/08/29 05:23:01;;;;;;;7.15;2.47;;;;;;;15.98;73.76;102155.94;5052927;28;20384;-41
2021/08/29 05:25:26;;;;;;;9.75;2.25;;;;;;;16.01;73.26;102160.16;5071096;28;20115;-40
2021/08/29 05:27:52;;;;;;;9.18;2.40;;;;;;;16.04;72.88;102158.94;5070746;28;20215;-40
2021/08/29 05:30:17;;;;;;;9.93;2.50;;;;;;;16.01;72.75;102163.72;5071028;28;20123;-40
2021/08/29 05:32:42;;;;;;;11.95;2.53;;;;;;;16.07;72.64;102166.72;5071105;28;20032;-41
2021/08/29 05:35:08;;;;;;;17.15;2.72;;;;;;;16.08;72.36;102162.94;5071113;28;20411;-41
2021/08/29 05:37:33;;;;;;;12.15;2.20;;;;;;;16.10;72.36;102167.16;5070741;28;20473;-40
2021/08/29 05:39:59;;;;;;;7.43;2.50;;;;;;;16.13;72.69;102168.66;5071226;28;20480;-40
2021/08/29 05:42:24;;;;;;;14.40;2.80;;;;;;;16.07;73.13;102167.53;5071290;28;20031;-41
2021/08/29 05:44:49;;;;;;;13.88;2.95;;;;;;;16.11;72.83;102166.13;5070237;28;20451;-40
2021/08/29 05:47:15;;;;;;;8.98;2.88;;;;;;;16.13;72.67;102168.66;5070639;28;20484;-41
2021/08/29 05:49:40;;;;;;;11.27;2.42;;;;;;;16.13;72.42;102163.25;5070493;28;20028;-41
2021/08/29 05:52:06;;;;;;;10.90;2.45;;;;;;;16.18;71.80;102160.81;5070332;28;20111;-39
2021/08/29 05:54:31;;;;;;;12.82;2.75;;;;;;;16.25;71.48;102161.75;5070697;28;20064;-40
2021/08/29 05:56:57;;;;;;;12.05;2.92;;;;;;;16.27;71.67;102158.84;5070641;28;20021;-40
2021/08/29 05:59:22;;;;;;;9.85;2.65;;;;;;;16.26;71.59;102173.47;5070652;28;20472;-40
2021/08/29 06:01:47;;;;;;;13.63;2.90;;;;;;;16.22;71.92;102173.00;5070570;28;20024;-40
2021/08/29 06:04:12;;;;;;;14.57;2.90;;;;;;;16.23;71.55;102174.66;5070647;28;20025;-40
2021/08/29 06:06:38;;;;;;;10.07;2.72;;;;;;;16.23;71.68;102175.50;5071692;28;20032;-39
2021/08/29 06:09:03;;;;;;;10.95;2.50;;;;;;;16.26;71.72;102179.72;5051947;28;20122;-39
2021/08/29 06:11:29;;;;;;;9.43;2.58;;;;;;;16.33;71.65;102169.81;5052862;28;20025;-40
2021/08/29 06:13:56;;;;;;;12.85;3.13;;;;;;;16.34;71.67;102170.63;5059835;28;20031;-40
2021/08/29 06:16:22;;;;;;;7.85;2.40;;;;;;;16.34;71.99;102170.63;5054682;28;20032;-41
2021/08/29 06:18:48;;;;;;;13.73;3.15;;;;;;;16.39;71.64;102173.63;5072926;28;20070;-41
2021/08/29 06:21:13;;;;;;;7.80;2.58;;;;;;;16.40;71.30;102176.19;5073207;28;20059;-41
2021/08/29 06:23:38;;;;;;;9.93;2.33;;;;;;;16.44;71.02;102163.88;5073222;28;20198;-41
2021/08/29 06:26:04;;;;;;;11.60;2.83;;;;;;;16.46;71.11;102169.16;5072899;28;20096;-41
2021/08/29 06:28:29;;;;;;;9.68;2.60;;;;;;;16.51;70.46;102161.28;5072879;28;20485;-41
2021/08/29 06:30:54;;;;;;;12.68;2.30;;;;;;;16.51;70.68;102171.28;5072972;28;20745;-42
2021/08/29 06:33:20;;;;;;;8.25;2.47;;;;;;;16.50;70.85;102164.16;5072920;28;20054;-41
2021/08/29 06:35:45;;;;;;;17.75;3.13;;;;;;;16.42;70.94;102171.38;5072556;28;20031;-41
2021/08/29 06:38:10;;;;;;;9.85;2.50;;;;;;;16.42;71.09;102168.66;5073021;28;20052;-40
2021/08/29 06:40:35;;;;;;;11.32;2.83;;;;;;;16.41;71.09;102160.72;5072910;28;20079;-40
2021/08/29 06:43:01;;;;;;;10.45;2.35;;;;;;;16.43;71.31;102158.66;5072794;28;20064;-41
2021/08/29 06:45:26;;;;;;;11.25;2.58;;;;;;;16.40;71.14;102159.88;5072519;28;20046;-41
2021/08/29 06:47:52;;;;;;;7.78;2.53;;;;;;;16.40;71.32;102159.88;5072818;28;20046;-42
2021/08/29 06:50:17;;;;;;;12.18;2.63;;;;;;;16.43;71.16;102162.22;5072529;28;20494;-41
2021/08/29 06:52:42;;;;;;;13.02;2.55;;;;;;;16.49;70.95;102163.34;5072347;28;20032;-40
2021/08/29 06:55:08;;;;;;;9.65;2.72;;;;;;;16.47;71.49;102165.38;5072322;28;20024;-41
2021/08/29 06:57:33;;;;;;;10.23;2.28;;;;;;;16.49;71.38;102157.06;5072750;28;20033;-40
2021/08/29 06:59:58;;;;;;;10.43;2.40;;;;;;;16.52;71.93;102168.38;5072349;28;20036;-40
2021/08/29 07:02:24;;;;;;;11.27;2.60;;;;;;;16.56;71.72;102161.56;5072363;28;20430;-40
2021/08/29 07:04:49;;;;;;;14.55;2.58;;;;;;;16.61;71.86;102159.13;5072108;28;20094;-40
2021/08/29 07:07:15;;;;;;;15.05;2.95;;;;;;;16.64;71.44;102161.44;5072572;28;20409;-40
2021/08/29 07:09:41;;;;;;;9.75;2.15;;;;;;;16.46;71.73;102150.97;5072537;28;20051;-40
2021/08/29 07:12:08;;;;;;;11.40;2.65;;;;;;;16.49;71.30;102157.06;5072560;28;20032;-40
2021/08/29 07:14:33;;;;;;;12.63;2.53;;;;;;;16.50;70.94;102156.84;5072031;28;20111;-41
2021/08/29 07:16:58;;;;;;;6.65;1.95;;;;;;;16.49;70.17;102159.78;5072074;28;20055;-41
2021/08/29 07:19:24;;;;;;;15.30;2.60;;;;;;;16.51;70.44;102152.25;5072407;28;20111;-40
2021/08/29 07:21:49;;;;;;;10.80;2.30;;;;;;;16.52;70.32;102152.06;5071806;28;20025;-41
2021/08/29 07:24:14;;;;;;;12.27;3.13;;;;;;;16.51;71.22;102144.97;5072387;28;20025;-40
2021/08/29 07:26:40;;;;;;;12.95;2.80;;;;;;;16.57;70.54;102143.38;5071847;28;20025;-41
2021/08/29 07:29:05;;;;;;;11.30;2.65;;;;;;;16.60;70.20;102148.41;5071909;28;20097;-41
2021/08/29 07:31:31;;;;;;;9.95;2.35;;;;;;;16.64;70.36;102152.41;5072188;28;20124;-41
2021/08/29 07:33:57;;;;;;;18.63;2.72;;;;;;;16.69;70.54;102158.13;5072270;28;20116;-40
2021/08/29 07:36:22;;;;;;;8.43;2.15;;;;;;;16.74;70.53;102161.13;5071978;28;20032;-41
2021/08/29 07:38:47;;;;;;;7.32;2.42;;;;;;;16.82;70.19;102163.75;5071660;28;20025;-41
2021/08/29 07:41:13;;;;;;;7.90;2.55;;;;;;;16.84;70.09;102160.84;5072028;28;20024;-41
2021/08/29 07:43:38;;;;;;;15.55;2.75;;;;;;;16.84;70.32;102161.69;5072000;28;20078;-42
2021/08/29 07:46:04;;;;;;;17.50;3.42;;;;;;;16.90;70.26;102154.66;5053757;28;20460;-41
2021/08/29 07:48:29;;;;;;;15.15;2.60;;;;;;;16.95;70.39;102151.34;5071875;28;20032;-41
2021/08/29 07:50:54;;;;;;;13.60;2.40;;;;;;;17.00;70.48;102154.34;5072007;28;20016;-41
2021/08/29 07:53:20;;;;;;;10.95;2.42;;;;;;;17.03;70.38;102152.06;5072075;28;20134;-42
2021/08/29 07:55:45;;;;;;;11.27;2.72;;;;;;;17.09;70.31;102147.75;5071802;28;20021;-41
2021/08/29 07:58:10;;;;;;;16.77;3.25;;;;;;;17.04;70.92;102148.34;5053911;28;20102;-41
2021/08/29 08:00:36;;;;;;;11.63;2.42;;;;;;;17.07;70.78;102144.38;5071998;28;20028;-41
2021/08/29 08:03:01;;;;;;;15.65;2.75;;;;;;;17.13;70.73;102143.59;5071873;28;20029;-40
2021/08/29 08:05:26;;;;;;;11.70;3.00;;;;;;;17.17;70.77;102144.03;5071623;28;20020;-40
2021/08/29 08:07:52;;;;;;;14.88;3.25;;;;;;;17.19;70.72;102140.09;5071895;28;20074;-40
2021/08/29 08:10:19;;;;;;;14.20;2.72;;;;;;;17.18;70.70;102138.44;5071473;28;20384;-40
2021/08/29 08:12:45;;;;;;;20.83;3.22;;;;;;;17.22;70.87;102141.59;5071804;28;20029;-41
2021/08/29 08:15:11;;;;;;;12.38;2.78;;;;;;;17.15;70.95;102141.53;5071632;28;20392;-40
2021/08/29 08:17:36;;;;;;;14.73;2.40;;;;;;;17.15;70.76;102146.97;5071604;28;20446;-41
2021/08/29 08:20:01;;;;;;;12.95;2.97;;;;;;;17.20;70.41;102152.69;5071681;28;20055;-40
2021/08/29 08:22:27;;;;;;;8.05;2.80;;;;;;;17.22;70.34;102142.47;5071664;28;20104;-40
2021/08/29 08:24:52;;;;;;;21.52;3.08;;;;;;;17.18;70.82;102141.16;5071760;28;20027;-41
2021/08/29 08:27:17;;;;;;;15.68;3.00;;;;;;;17.14;71.39;102152.59;5071352;28;20025;-40
2021/08/29 08:29:43;;;;;;;18.60;3.22;;;;;;;17.18;71.04;102143.03;5071741;28;20491;-40
2021/08/29 08:32:08;;;;;;;11.35;2.90;;;;;;;17.23;70.68;102144.13;5071930;28;20395;-40
2021/08/29 08:34:33;;;;;;;14.43;2.90;;;;;;;17.25;70.53;102142.06;5075364;28;20024;-40
2021/08/29 08:36:58;;;;;;;9.63;3.22;;;;;;;17.30;70.97;102141.47;5074748;28;20024;-40
2021/08/29 08:39:24;;;;;;;24.33;3.50;;;;;;;17.34;71.63;102140.03;5075192;28;20032;-40
2021/08/29 08:41:49;;;;;;;19.88;3.22;;;;;;;17.34;71.45;102140.03;5075018;28;20025;-40
2021/08/29 08:44:16;;;;;;;15.32;2.63;;;;;;;17.42;70.70;102139.06;5075262;28;20027;-40
2021/08/29 08:46:45;;;;;;;19.40;2.60;;;;;;;17.52;69.66;102142.31;5074713;28;20103;-41
2021/08/29 08:49:10;;;;;;;14.55;2.70;;;;;;;17.55;68.96;102142.75;5074739;28;20484;-41
2021/08/29 08:51:45;;;;;;;12.35;3.22;;;;;;;17.57;69.13;102145.28;5057069;28;20052;-41
2021/08/29 08:54:13;;;;;;;12.68;3.08;;;;;;;17.61;69.09;102152.00;5075122;28;20365;-40
2021/08/29 08:56:38;;;;;;;;;;;;;;;17.62;68.91;102153.69;5075186;28;20379;-40
2021/08/29 08:59:05;;;;;;;9.30;2.47;;;;;;;17.68;68.94;102144.72;5074863;28;19912;-40
2021/08/29 09:01:31;;;;;;;14.85;3.20;;;;;;;17.61;68.83;102152.00;5074808;28;20024;-41
2021/08/29 09:03:56;;;;;;;16.52;3.30;;;;;;;17.64;68.43;102148.91;5056700;28;20032;-40
2021/08/29 09:06:22;;;;;;;11.90;3.25;;;;;;;17.70;68.47;102156.28;5074601;28;20025;-40
2021/08/29 09:08:47;;;;;;;13.73;3.42;;;;;;;17.72;67.90;102151.47;5074408;28;20032;-40
2021/08/29 09:11:12;;;;;;;8.35;2.72;;;;;;;17.62;68.17;102153.69;5074570;28;20388;-40
2021/08/29 09:13:47;;;;;;;14.38;3.08;;;;;;;17.59;68.44;102151.38;5074513;28;20025;-40
2021/08/29 09:16:25;;;;;;;14.73;3.58;;;;;;;17.63;68.46;102154.53;5074273;28;20078;-41
2021/08/29 09:18:53;;;;;;;12.48;3.40;;;;;;;17.62;68.96;102153.69;5074707;28;20058;-40
2021/08/29 09:21:19;;;;;;;17.83;2.80;;;;;;;17.59;68.78;102151.38;5056819;28;20036;-39
2021/08/29 09:23:44;;;;;;;18.08;3.17;;;;;;;17.66;68.53;102156.84;5074348;28;20042;-39
2021/08/29 09:26:10;;;;;;;11.38;3.25;;;;;;;17.70;68.70;102156.28;5074036;28;20395;-40
2021/08/29 09:28:35;;;;;;;12.20;3.08;;;;;;;17.70;68.99;102150.00;5056081;28;20055;-40
2021/08/29 09:31:01;;;;;;;12.65;3.05;;;;;;;17.77;68.67;102156.31;5074356;28;20112;-41
2021/08/29 09:33:31;;;;;;;16.40;3.15;;;;;;;17.81;68.54;102154.91;5074286;28;20048;-40
2021/08/29 09:35:57;;;;;;;10.48;2.90;;;;;;;17.83;68.79;102155.56;5073943;28;20024;-40
2021/08/29 09:38:23;;;;;;;16.50;3.30;;;;;;;17.88;68.46;102163.16;5074380;28;20021;-40
2021/08/29 09:40:48;;;;;;;12.98;2.95;;;;;;;17.87;68.22;102158.72;5074079;28;20028;-40
2021/08/29 09:43:13;;;;;;;16.58;3.10;;;;;;;17.82;67.97;102150.31;5073717;28;20028;-40
2021/08/29 09:45:41;;;;;;;11.30;2.83;;;;;;;17.78;68.34;102166.19;5073714;28;20341;-41
2021/08/29 09:48:08;;;;;;;;;;;;;;;17.78;67.92;102153.41;5074362;28;20597;-40
2021/08/29 09:50:35;;;;;;;16.85;3.78;;;;;;;17.83;67.24;102150.13;5073811;28;20011;-40
2021/08/29 09:53:12;;;;;;;12.15;2.95;;;;;;;17.85;66.92;102158.06;5073757;28;20024;-40
2021/08/29 09:55:40;;;;;;;10.82;2.67;;;;;;;17.73;67.75;102144.97;5073426;28;20054;-40
2021/08/29 09:58:33;;;;;;;13.70;2.60;;;;;;;17.68;67.71;102141.19;5073639;28;20480;-40
2021/08/29 10:01:08;;;;;;;8.88;2.38;;;;;;;17.74;67.56;102135.75;5073825;28;20093;-41
2021/08/29 10:03:34;;;;;;;10.80;2.55;;;;;;;17.77;67.15;102139.97;5073465;28;20392;-40
2021/08/29 10:06:26;;;;;;;10.38;2.67;;;;;;;17.68;67.11;102142.00;5073445;28;20032;-41
2021/08/29 10:08:52;;;;;;;12.52;3.17;;;;;;;17.69;67.04;102140.13;5073242;28;20097;-40
2021/08/29 10:11:19;;;;;;;14.45;2.75;;;;;;;17.71;67.19;102143.50;5073441;28;20033;-40
2021/08/29 10:13:45;;;;;;;10.13;2.72;;;;;;;17.71;67.29;102141.59;5073240;28;20063;-40
2021/08/29 10:16:12;;;;;;;9.55;2.40;;;;;;;17.72;67.28;102129.69;5073171;28;20020;-40
2021/08/29 10:18:57;;;;;;;12.15;2.47;;;;;;;17.65;67.50;102134.25;5073034;28;20029;-40
2021/08/29 10:21:27;;;;;;;17.23;3.08;;;;;;;17.65;67.89;102131.53;5073082;28;20147;-41
2021/08/29 10:23:54;;;;;;;17.55;2.88;;;;;;;17.65;68.13;102130.69;5072897;28;20035;-40
2021/08/29 10:26:22;;;;;;;13.35;2.70;;;;;;;17.67;67.79;102129.44;5073088;28;20097;-40
2021/08/29 10:29:09;;;;;;;14.75;2.55;;;;;;;17.72;67.61;102126.09;5073027;28;20044;-40
2021/08/29 10:31:38;;;;;;;11.45;2.63;;;;;;;17.82;67.44;102128.53;5073040;28;20349;-42
2021/08/29 10:34:04;;;;;;;12.70;2.50;;;;;;;17.86;67.18;102127.94;5038585;28;20068;-41
2021/08/29 10:36:30;;;;;;;12.05;3.15;;;;;;;17.80;67.45;102123.28;5073224;28;20081;-40
2021/08/29 10:38:55;;;;;;;18.15;3.17;;;;;;;17.81;68.14;102121.41;5055169;28;20388;-41
2021/08/29 10:41:22;;;;;;;9.82;2.30;;;;;;;17.91;67.39;102127.34;5073009;28;20040;-39
2021/08/29 10:43:48;;;;;;;18.42;2.97;;;;;;;17.91;67.60;102124.63;5072322;28;20387;-40
2021/08/29 10:46:14;;;;;;;14.45;3.22;;;;;;;17.88;67.94;102116.84;5072368;28;20028;-41
2021/08/29 10:48:42;;;;;;;18.00;3.22;;;;;;;17.82;67.68;102117.63;5038128;28;20028;-39
2021/08/29 10:51:12;;;;;;;15.35;2.55;;;;;;;17.73;68.06;102123.19;5072752;28;20025;-40
2021/08/29 10:53:41;;;;;;;18.38;2.90;;;;;;;17.63;68.47;102121.88;5054878;28;20028;-40
2021/08/29 10:56:29;;;;;;;14.93;2.70;;;;;;;17.59;68.29;102121.44;5071820;28;20020;-41
2021/08/29 10:59:06;;;;;;;12.68;2.90;;;;;;;17.59;68.95;102110.53;5072898;28;20036;-40
2021/08/29 11:01:34;;;;;;;16.83;2.83;;;;;;;17.55;69.37;102111.97;5072584;28;20448;-40
2021/08/29 11:04:20;;;;;;;15.55;3.20;;;;;;;17.45;69.13;102111.47;5072273;28;20024;-41
2021/08/29 11:06:53;;;;;;;11.27;2.55;;;;;;;17.55;69.14;102115.53;5072196;28;20059;-40
2021/08/29 11:09:37;;;;;;;13.93;2.78;;;;;;;17.51;69.00;102113.41;5072452;28;20033;-40
2021/08/29 11:12:14;;;;;;;15.50;2.42;;;;;;;17.51;69.55;102105.25;5072627;28;20081;-41
2021/08/29 11:14:40;;;;;;;;;;;;;;;17.49;69.26;102102.72;5073099;28;20464;-39
2021/08/29 11:17:13;;;;;;;14.70;2.90;;;;;;;17.50;69.49;102111.72;5070982;28;19924;-40
2021/08/29 11:19:40;;;;;;;8.90;2.47;;;;;;;17.48;69.51;102114.66;5065905;28;20096;-41
2021/08/29 11:22:08;;;;;;;14.77;2.88;;;;;;;17.43;69.85;102108.94;5071596;28;20024;-40